Time;durP1;ratioP1;P1;durP2;ratioP2;P2;SDS_P1;SDS_P2;PMS_P1;PMS_P2;Temp;Humidity;BMP_temperature;BMP_pressure;BME280_temperature;BME280_humidity;BME280_pressure;Samples;Min_cycle;Max_cycle;Signal;HPM_P1;HPM_P2
2023/08/16 00:00:07;;;;;;;11.90;9.80;;;;;;;22.27;73.64;101220.01;107582;1257;72838;-68
2023/08/16 00:02:34;;;;;;;21.80;9.80;;;;;;;22.25;73.42;101220.98;107799;1255;72685;-68
2023/08/16 00:05:03;;;;;;;11.00;9.70;;;;;;;22.36;73.23;101222.25;107577;1260;60469;-68
2023/08/16 00:07:33;;;;;;;13.30;9.90;;;;;;;22.42;72.62;101218.86;107726;1256;60478;-68
2023/08/16 00:10:01;;;;;;;10.90;9.80;;;;;;;22.45;72.54;101219.36;107716;1257;77927;-69
2023/08/16 00:12:28;;;;;;;11.10;9.90;;;;;;;22.47;72.47;101222.56;107644;1256;71482;-69
2023/08/16 00:14:56;;;;;;;11.00;9.40;;;;;;;22.48;72.28;101225.74;107535;1256;72694;-68
2023/08/16 00:17:24;;;;;;;10.80;9.70;;;;;;;22.49;72.16;101225.77;107656;1255;61719;-68
2023/08/16 00:19:51;;;;;;;10.40;9.40;;;;;;;22.39;72.53;101228.43;107679;1255;60429;-69
2023/08/16 00:22:19;;;;;;;11.80;10.10;;;;;;;22.36;72.48;101231.25;107791;1257;73849;-69
2023/08/16 00:24:47;;;;;;;10.60;9.30;;;;;;;22.43;72.33;101229.01;107513;1256;72867;-69
2023/08/16 00:27:14;;;;;;;10.80;9.70;;;;;;;22.45;72.11;101232.36;107668;1257;71657;-69
2023/08/16 00:29:46;;;;;;;10.60;9.50;;;;;;;22.43;72.15;101231.02;107558;1257;61850;-67
2023/08/16 00:32:14;;;;;;;11.50;10.20;;;;;;;22.42;72.20;101233.39;107582;1256;59233;-68
2023/08/16 00:34:41;;;;;;;11.20;10.10;;;;;;;22.40;72.48;101231.73;107656;1260;73817;-68
2023/08/16 00:37:12;;;;;;;12.10;10.10;;;;;;;22.38;72.79;101234.02;107599;1258;71808;-68
2023/08/16 00:39:40;;;;;;;11.00;9.70;;;;;;;22.36;72.82;101232.34;107551;1257;71476;-69
2023/08/16 00:42:08;;;;;;;11.80;10.30;;;;;;;22.35;72.97;101236.05;107674;1259;60495;-67
2023/08/16 00:44:35;;;;;;;11.20;10.00;;;;;;;22.34;72.98;101238.55;107490;1255;60309;-68
2023/08/16 00:47:04;;;;;;;10.50;9.50;;;;;;;22.31;73.26;101241.81;107832;1254;73921;-68
2023/08/16 00:49:32;;;;;;;11.00;9.90;;;;;;;22.26;73.38;101242.77;107733;1257;71894;-68
2023/08/16 00:52:00;;;;;;;11.40;9.40;;;;;;;22.20;73.87;101244.78;107640;1256;72858;-67
2023/08/16 00:54:28;;;;;;;10.80;9.40;;;;;;;22.16;74.03;101244.10;107703;1255;61806;-67
2023/08/16 00:56:56;;;;;;;10.90;9.40;;;;;;;22.12;74.32;101245.00;107496;1255;60429;-69
2023/08/16 00:59:25;;;;;;;12.60;9.60;;;;;;;22.08;74.48;101251.06;107833;1256;72643;-68
2023/08/16 01:01:53;;;;;;;10.50;9.40;;;;;;;22.04;75.07;101250.91;107774;1257;72959;-68
2023/08/16 01:04:22;;;;;;;10.20;9.30;;;;;;;22.02;75.15;101250.59;107908;1256;71693;-68
2023/08/16 01:06:53;;;;;;;11.20;10.00;;;;;;;22.01;75.64;101246.09;107868;1256;60915;-67
2023/08/16 01:09:21;;;;;;;11.50;10.10;;;;;;;22.00;75.65;101246.77;107814;1255;60364;-69
2023/08/16 01:12:15;;;;;;;10.80;9.70;;;;;;;21.94;75.93;101249.44;107817;1256;73061;-67
2023/08/16 01:14:49;;;;;;;10.80;9.70;;;;;;;21.80;76.53;101250.77;107656;1261;72749;-68
2023/08/16 01:17:19;;;;;;;10.20;9.10;;;;;;;21.77;76.86;101254.70;107769;1256;72872;-67
2023/08/16 01:19:47;;;;;;;11.40;9.60;;;;;;;21.73;76.93;101253.33;107705;1256;60975;-67
2023/08/16 01:22:28;;;;;;;10.40;9.10;;;;;;;21.78;76.89;101254.48;107571;1256;60320;-69
2023/08/16 01:25:17;;;;;;;10.20;9.30;;;;;;;21.69;76.89;101256.41;107793;1255;71924;-66
2023/08/16 01:27:45;;;;;;;10.10;9.10;;;;;;;21.62;77.28;101257.66;107809;1256;72055;-68
2023/08/16 01:30:13;;;;;;;12.00;9.60;;;;;;;21.59;77.22;101256.60;107809;1256;72766;-68
2023/08/16 01:32:41;;;;;;;10.40;9.30;;;;;;;21.55;77.21;101255.92;107798;1256;61697;-67
2023/08/16 01:35:09;;;;;;;13.00;9.70;;;;;;;21.52;77.33;101257.98;107913;1257;60306;-67
2023/08/16 01:37:36;;;;;;;10.60;9.50;;;;;;;21.51;77.55;101256.60;107670;1256;73946;-68
2023/08/16 01:40:08;;;;;;;10.70;9.50;;;;;;;21.53;77.59;101254.52;107835;1255;75350;-68
2023/08/16 01:42:39;;;;;;;11.20;10.10;;;;;;;21.56;77.91;101259.87;107817;1255;72840;-66
2023/08/16 01:45:07;;;;;;;10.40;9.30;;;;;;;21.58;77.81;101261.07;107848;1257;60345;-67
2023/08/16 01:47:34;;;;;;;10.30;9.30;;;;;;;21.58;77.78;101259.28;107706;1255;60293;-68
2023/08/16 01:50:02;;;;;;;10.00;9.00;;;;;;;21.59;77.65;101257.05;107673;1256;72601;-67
2023/08/16 01:52:31;;;;;;;10.20;9.20;;;;;;;21.58;77.50;101253.98;107651;1257;72864;-67
2023/08/16 01:54:59;;;;;;;11.10;9.40;;;;;;;21.55;77.56;101246.63;107485;1262;72809;-67
2023/08/16 01:57:26;;;;;;;11.50;10.10;;;;;;;21.53;77.53;101246.48;107987;1256;61745;-67
2023/08/16 01:59:54;;;;;;;12.70;10.40;;;;;;;21.53;77.62;101248.01;107741;1256;60356;-68
2023/08/16 02:02:24;;;;;;;11.60;10.40;;;;;;;21.53;77.69;101249.58;107608;1257;74391;-67
2023/08/16 02:04:51;;;;;;;12.40;10.20;;;;;;;21.53;78.05;101248.71;107727;1257;71948;-68
2023/08/16 02:07:20;;;;;;;9.60;8.70;;;;;;;21.53;78.36;101250.66;107744;1257;71405;-69
2023/08/16 02:09:48;;;;;;;10.50;9.40;;;;;;;21.48;78.67;101245.59;107885;1257;60543;-67
2023/08/16 02:12:16;;;;;;;10.50;9.50;;;;;;;21.40;78.76;101246.84;107837;1255;60309;-68
2023/08/16 02:14:44;;;;;;;12.60;9.90;;;;;;;21.37;78.87;101247.52;107660;1256;74010;-69
2023/08/16 02:17:12;;;;;;;11.10;9.80;;;;;;;21.36;78.91;101253.54;107792;1257;73123;-68
2023/08/16 02:19:41;;;;;;;10.90;9.80;;;;;;;21.35;79.07;101253.48;107895;1256;70519;-68
2023/08/16 02:22:09;;;;;;;10.30;9.30;;;;;;;21.35;79.29;101255.71;107945;1257;63969;-68
2023/08/16 02:24:36;;;;;;;11.00;9.80;;;;;;;21.35;79.25;101259.09;107639;1255;60333;-69
2023/08/16 02:27:04;;;;;;;10.70;9.60;;;;;;;21.27;79.29;101259.85;107805;1256;74022;-68
2023/08/16 02:29:31;;;;;;;11.60;9.90;;;;;;;21.19;79.52;101261.60;107823;1256;73085;-68
2023/08/16 02:31:59;;;;;;;11.80;10.10;;;;;;;21.16;79.60;101259.13;107728;1257;71142;-68
2023/08/16 02:34:27;;;;;;;11.40;10.40;;;;;;;21.18;79.89;101261.14;107710;1257;60449;-69
2023/08/16 02:36:55;;;;;;;11.00;9.90;;;;;;;21.21;80.02;101264.97;107773;1255;58985;-68
2023/08/16 02:39:22;;;;;;;10.70;9.70;;;;;;;21.25;79.76;101266.55;107935;1256;74014;-68
2023/08/16 02:41:53;;;;;;;11.40;9.20;;;;;;;21.26;79.70;101268.63;107725;1261;72942;-69
2023/08/16 02:44:20;;;;;;;10.60;9.50;;;;;;;21.35;79.14;101269.80;107771;1257;71414;-68
2023/08/16 02:46:48;;;;;;;10.30;9.30;;;;;;;21.35;78.84;101271.42;107935;1257;62553;-68
2023/08/16 02:49:16;;;;;;;9.90;9.00;;;;;;;21.33;78.62;101276.45;107631;1257;60160;-69
2023/08/16 02:51:43;;;;;;;9.60;8.70;;;;;;;21.33;78.62;101276.23;107960;1256;73819;-68
2023/08/16 02:54:11;;;;;;;9.80;8.80;;;;;;;21.33;78.47;101275.04;107796;1256;71735;-68
2023/08/16 02:56:39;;;;;;;11.60;9.70;;;;;;;21.35;78.36;101271.54;107744;1259;70358;-67
2023/08/16 02:59:12;;;;;;;10.30;9.30;;;;;;;21.34;78.18;101272.29;107906;1257;60430;-68
2023/08/16 03:01:40;;;;;;;11.10;9.60;;;;;;;21.35;78.29;101275.00;107978;1256;60296;-68
2023/08/16 03:04:09;;;;;;;10.70;9.40;;;;;;;21.38;78.17;101275.27;107885;1257;75044;-68
2023/08/16 03:06:36;;;;;;;10.10;9.10;;;;;;;21.39;78.02;101278.17;107801;1256;73345;-68
2023/08/16 03:09:04;;;;;;;9.90;8.90;;;;;;;21.41;78.13;101277.17;107754;1256;72839;-68
2023/08/16 03:11:32;;;;;;;10.50;9.00;;;;;;;21.42;78.04;101279.39;107871;1260;61172;-70
2023/08/16 03:13:59;;;;;;;10.50;8.90;;;;;;;21.39;78.07;101277.79;107894;1255;60386;-69
2023/08/16 03:16:27;;;;;;;9.50;8.60;;;;;;;21.34;77.92;101281.32;107704;1256;73959;-67
2023/08/16 03:18:56;;;;;;;10.40;9.30;;;;;;;21.31;78.26;101283.70;107890;1257;72888;-69
2023/08/16 03:21:24;;;;;;;10.60;9.60;;;;;;;21.29;78.48;101286.12;107623;1257;71584;-68
2023/08/16 03:23:52;;;;;;;11.90;9.90;;;;;;;21.32;78.74;101285.99;107682;1261;61687;-69
2023/08/16 03:26:20;;;;;;;11.50;10.20;;;;;;;21.37;78.80;101288.66;107812;1257;60387;-68
2023/08/16 03:28:47;;;;;;;10.70;9.60;;;;;;;21.39;78.92;101288.17;107785;1257;73972;-68
2023/08/16 03:31:15;;;;;;;11.90;10.30;;;;;;;21.41;78.82;101291.27;107836;1255;71905;-68
2023/08/16 03:33:43;;;;;;;13.90;10.20;;;;;;;21.41;79.00;101290.83;107809;1257;72975;-68
2023/08/16 03:36:11;;;;;;;11.40;10.10;;;;;;;21.43;79.40;101294.36;107602;1257;61779;-69
2023/08/16 03:38:41;;;;;;;11.20;10.00;;;;;;;21.49;79.39;101297.15;107826;1256;60365;-68
2023/08/16 03:41:10;;;;;;;11.90;9.80;;;;;;;21.56;79.26;101293.27;107721;1256;74293;-68
2023/08/16 03:43:38;;;;;;;11.50;10.40;;;;;;;21.60;79.13;101293.64;107879;1256;72437;-68
2023/08/16 03:46:07;;;;;;;12.50;10.50;;;;;;;21.65;78.60;101294.90;107901;1256;71690;-69
2023/08/16 03:48:34;;;;;;;12.10;10.40;;;;;;;21.72;78.74;101295.00;107834;1256;61810;-68
2023/08/16 03:51:04;;;;;;;11.60;10.40;;;;;;;21.80;78.52;101293.82;107700;1256;60310;-70
2023/08/16 03:53:32;;;;;;;11.60;10.60;;;;;;;21.84;78.34;101291.90;107758;1257;74516;-69
2023/08/16 03:56:00;;;;;;;14.00;12.60;;;;;;;21.88;78.33;101294.12;107847;1257;71672;-69
2023/08/16 03:58:27;;;;;;;13.40;12.10;;;;;;;21.94;78.35;101295.84;107793;1260;72773;-66
2023/08/16 04:00:55;;;;;;;12.30;11.10;;;;;;;22.05;78.27;101297.12;107805;1256;60411;-66
2023/08/16 04:03:24;;;;;;;13.00;11.60;;;;;;;22.17;78.38;101305.02;107749;1256;59056;-67
2023/08/16 04:05:52;;;;;;;14.70;13.00;;;;;;;22.29;78.08;101303.35;107833;1256;74553;-67
2023/08/16 04:08:20;;;;;;;14.30;12.70;;;;;;;22.41;77.94;101303.27;107827;1256;73053;-67
2023/08/16 04:10:48;;;;;;;14.20;12.50;;;;;;;22.52;77.52;101303.25;107757;1256;71259;-68
2023/08/16 04:13:16;;;;;;;15.10;13.60;;;;;;;22.64;77.15;101307.64;107826;1255;61665;-67
2023/08/16 04:15:44;;;;;;;13.80;12.20;;;;;;;22.76;76.83;101303.22;107854;1257;60523;-68
2023/08/16 04:18:11;;;;;;;13.60;12.20;;;;;;;22.91;76.48;101307.84;107842;1256;72604;-67
2023/08/16 04:20:39;;;;;;;15.00;13.50;;;;;;;23.04;76.22;101304.95;107815;1256;72847;-69
2023/08/16 04:23:06;;;;;;;14.20;12.70;;;;;;;23.16;75.40;101307.63;107969;1257;72509;-68
2023/08/16 04:25:36;;;;;;;14.00;12.60;;;;;;;23.26;74.95;101307.12;107910;1257;61764;-68
2023/08/16 04:28:04;;;;;;;17.80;12.80;;;;;;;23.37;74.43;101313.50;107796;1256;60451;-70
2023/08/16 04:30:32;;;;;;;13.30;12.10;;;;;;;23.51;74.13;101311.45;107803;1256;74431;-68
2023/08/16 04:33:00;;;;;;;12.80;11.50;;;;;;;23.66;73.72;101306.77;107697;1257;72909;-69
2023/08/16 04:35:28;;;;;;;13.70;12.30;;;;;;;23.80;73.10;101307.41;107849;1255;71890;-69
2023/08/16 04:37:55;;;;;;;14.80;12.20;;;;;;;23.87;72.47;101311.67;107741;1255;61688;-69
2023/08/16 04:40:23;;;;;;;14.20;12.70;;;;;;;23.93;72.13;101314.09;107719;1255;60310;-69
2023/08/16 04:42:52;;;;;;;13.80;12.40;;;;;;;23.97;71.69;101312.62;107805;1257;72643;-68
2023/08/16 04:45:20;;;;;;;14.10;12.30;;;;;;;24.03;71.39;101312.10;107733;1256;71583;-69
2023/08/16 04:47:48;;;;;;;12.90;11.60;;;;;;;24.14;70.90;101308.83;107803;1257;72898;-69
2023/08/16 04:50:17;;;;;;;13.30;11.20;;;;;;;24.30;70.39;101311.96;107706;1256;62020;-68
2023/08/16 04:52:45;;;;;;;13.70;11.90;;;;;;;24.50;69.92;101312.21;107882;1255;63570;-69
2023/08/16 04:55:13;;;;;;;14.00;12.10;;;;;;;24.66;68.77;101310.54;107869;1256;73971;-69
2023/08/16 04:57:42;;;;;;;13.40;12.00;;;;;;;24.81;68.20;101305.85;107815;1257;72073;-70
2023/08/16 05:00:12;;;;;;;12.70;11.40;;;;;;;24.96;67.64;101306.06;107916;1257;72773;-68
2023/08/16 05:02:46;;;;;;;14.20;10.90;;;;;;;25.13;67.01;101309.10;107771;1256;60194;-69
2023/08/16 05:05:13;;;;;;;11.70;10.50;;;;;;;25.29;66.13;101307.80;107736;1258;60425;-69
2023/08/16 05:07:41;;;;;;;11.70;10.50;;;;;;;25.47;65.22;101302.63;107797;1256;73924;-69
2023/08/16 05:10:09;;;;;;;11.00;9.90;;;;;;;25.60;64.43;101303.77;107778;1257;71692;-69
2023/08/16 05:12:36;;;;;;;11.90;10.70;;;;;;;25.72;63.83;101301.33;107742;1257;72662;-69
2023/08/16 05:15:05;;;;;;;11.30;10.20;;;;;;;25.86;63.38;101300.40;107914;1257;60400;-68
2023/08/16 05:17:33;;;;;;;11.40;10.30;;;;;;;25.97;63.07;101301.05;107823;1256;60392;-68
2023/08/16 05:20:02;;;;;;;11.10;10.00;;;;;;;26.01;62.80;101303.29;107626;1257;73086;-68
2023/08/16 05:22:31;;;;;;;10.80;9.70;;;;;;;26.04;62.67;101309.06;107845;1257;72050;-68
2023/08/16 05:24:59;;;;;;;10.80;9.40;;;;;;;26.10;62.52;101307.08;107763;1256;72840;-68
2023/08/16 05:27:28;;;;;;;11.70;10.10;;;;;;;26.17;62.36;101306.91;107703;1257;62215;-68
2023/08/16 05:29:57;;;;;;;11.40;10.00;;;;;;;26.27;61.85;101306.83;107720;1256;60293;-69
2023/08/16 05:32:24;;;;;;;11.10;10.10;;;;;;;26.40;61.54;101309.02;107671;1257;72198;-69
2023/08/16 05:34:53;;;;;;;11.60;10.40;;;;;;;26.54;61.11;101310.85;107776;1257;71508;-68
2023/08/16 05:37:21;;;;;;;12.30;10.80;;;;;;;26.68;60.76;101308.65;107711;1256;72822;-69
2023/08/16 05:39:49;;;;;;;10.70;9.70;;;;;;;26.84;60.48;101311.16;107860;1260;61723;-70
2023/08/16 05:42:17;;;;;;;12.40;10.10;;;;;;;26.98;60.23;101302.98;107692;1257;60438;-69
2023/08/16 05:44:44;;;;;;;11.60;9.40;;;;;;;27.10;59.88;101307.86;107689;1257;64984;-71
2023/08/16 05:47:12;;;;;;;10.90;9.60;;;;;;;27.25;59.43;101305.54;107891;1256;72657;-71
2023/08/16 05:49:39;;;;;;;10.60;9.60;;;;;;;27.39;59.26;101304.88;107768;1256;72737;-70
2023/08/16 05:52:07;;;;;;;10.60;9.60;;;;;;;27.48;58.93;101301.66;107786;1257;60405;-69
2023/08/16 05:54:34;;;;;;;11.00;9.90;;;;;;;27.56;58.84;101300.77;107736;1256;60682;-69
2023/08/16 05:57:03;;;;;;;13.70;10.30;;;;;;;27.65;58.36;101299.27;107706;1257;73937;-69
2023/08/16 05:59:30;;;;;;;11.80;9.20;;;;;;;27.70;58.11;101304.80;107592;1260;72273;-69
2023/08/16 06:01:58;;;;;;;11.30;9.90;;;;;;;27.74;57.87;101301.67;107759;1256;73077;-70
2023/08/16 06:04:25;;;;;;;10.00;9.00;;;;;;;27.79;57.67;101306.67;107718;1256;60447;-69
2023/08/16 06:06:53;;;;;;;11.00;9.60;;;;;;;27.87;57.67;101309.37;107822;1260;60187;-70
2023/08/16 06:09:21;;;;;;;12.90;9.90;;;;;;;27.94;57.60;101308.69;107768;1257;73898;-70
2023/08/16 06:11:48;;;;;;;10.50;9.40;;;;;;;28.02;57.37;101308.85;107750;1257;72486;-70
2023/08/16 06:14:16;;;;;;;9.70;8.80;;;;;;;28.03;56.61;101306.13;107769;1257;72771;-70
2023/08/16 06:16:45;;;;;;;11.40;9.00;;;;;;;28.02;56.69;101308.79;107551;1257;60498;-70
2023/08/16 06:19:14;;;;;;;11.50;9.30;;;;;;;28.07;56.82;101307.64;107537;1260;62995;-70
2023/08/16 06:21:42;;;;;;;10.50;9.40;;;;;;;28.15;56.98;101305.15;107618;1257;74079;-69
2023/08/16 06:24:10;;;;;;;9.40;8.60;;;;;;;28.21;56.91;101306.23;107667;1257;64182;-70
2023/08/16 06:26:37;;;;;;;10.00;8.10;;;;;;;28.27;56.48;101303.53;107666;1260;62681;-68
2023/08/16 06:29:05;;;;;;;10.00;8.90;;;;;;;28.36;56.20;101299.09;107610;1256;60290;-70
2023/08/16 06:31:33;;;;;;;10.10;9.10;;;;;;;28.43;55.75;101295.58;107693;1256;62224;-70
2023/08/16 06:34:00;;;;;;;10.90;9.80;;;;;;;28.47;55.63;101294.02;107690;1256;63826;-71
2023/08/16 06:36:28;;;;;;;10.70;9.60;;;;;;;28.51;55.68;101295.81;107527;1257;62518;-69
2023/08/16 06:38:56;;;;;;;11.50;9.90;;;;;;;28.55;55.60;101296.36;107691;1257;63732;-71
2023/08/16 06:41:23;;;;;;;10.50;9.50;;;;;;;28.63;55.93;101295.51;107547;1262;60284;-71
2023/08/16 06:43:51;;;;;;;10.90;9.50;;;;;;;28.74;55.85;101292.66;107578;1255;61338;-70
2023/08/16 06:46:19;;;;;;;9.90;8.90;;;;;;;28.79;55.37;101293.93;107712;1257;63746;-71
2023/08/16 06:48:47;;;;;;;9.20;8.30;;;;;;;28.85;55.35;101293.42;107711;1261;62729;-70
2023/08/16 06:51:15;;;;;;;10.00;8.10;;;;;;;28.88;55.25;101291.20;107700;1257;62551;-70
2023/08/16 06:53:45;;;;;;;10.50;9.00;;;;;;;28.89;55.09;101293.89;107742;1257;62091;-72
2023/08/16 06:56:13;;;;;;;11.80;8.50;;;;;;;28.93;54.77;101293.02;107625;1260;60398;-72
2023/08/16 06:58:43;;;;;;;9.90;8.80;;;;;;;29.04;54.81;101290.04;107676;1257;63670;-72
2023/08/16 07:01:12;;;;;;;10.20;9.20;;;;;;;29.17;54.73;101283.60;107649;1257;63958;-73
2023/08/16 07:03:39;;;;;;;10.10;9.20;;;;;;;29.31;54.10;101283.35;107837;1257;63903;-71
2023/08/16 07:06:07;;;;;;;10.70;9.60;;;;;;;29.36;53.65;101283.75;107642;1258;60542;-70
2023/08/16 07:08:35;;;;;;;10.80;9.70;;;;;;;29.38;53.62;101285.20;107741;1260;60405;-71
2023/08/16 07:11:02;;;;;;;10.20;9.10;;;;;;;29.43;53.60;101283.95;107669;1257;63708;-72
2023/08/16 07:13:30;;;;;;;11.10;9.90;;;;;;;29.52;53.60;101283.63;107603;1261;63804;-69
2023/08/16 07:15:57;;;;;;;10.30;9.30;;;;;;;29.60;53.20;101282.02;107611;1258;65984;-70
2023/08/16 07:18:25;;;;;;;10.60;9.60;;;;;;;29.64;52.94;101282.82;107603;1257;60408;-71
2023/08/16 07:20:53;;;;;;;10.60;9.70;;;;;;;29.68;52.69;101281.24;107708;1255;60153;-70
2023/08/16 07:23:21;;;;;;;10.40;9.00;;;;;;;29.72;52.58;101284.20;107788;1260;64985;-69
2023/08/16 07:25:54;;;;;;;8.30;6.90;;;;;;;29.79;52.54;101281.79;107878;1257;64604;-71
2023/08/16 07:28:24;;;;;;;7.70;6.80;;;;;;;29.85;51.23;101279.13;107582;1257;63775;-71
2023/08/16 07:30:53;;;;;;;10.30;6.40;;;;;;;29.87;50.50;101281.75;107795;1260;60412;-71
2023/08/16 07:33:21;;;;;;;7.50;6.70;;;;;;;29.90;50.98;101282.36;107842;1255;60321;-71
2023/08/16 07:35:49;;;;;;;8.20;6.40;;;;;;;29.94;50.59;101279.64;107745;1255;65486;-70
2023/08/16 07:38:17;;;;;;;9.00;6.80;;;;;;;29.97;50.33;101278.75;107533;1258;62749;-71
2023/08/16 07:40:47;;;;;;;8.20;6.80;;;;;;;30.03;49.99;101278.36;107693;1260;63866;-71
2023/08/16 07:43:15;;;;;;;8.40;6.80;;;;;;;30.12;50.51;101276.98;107732;1257;60297;-71
2023/08/16 07:45:43;;;;;;;7.40;5.90;;;;;;;30.19;50.53;101271.20;107714;1258;60328;-71
2023/08/16 07:48:10;;;;;;;7.00;6.20;;;;;;;30.30;49.81;101270.70;107630;1255;63684;-70
2023/08/16 07:50:38;;;;;;;6.70;5.70;;;;;;;30.39;49.25;101271.77;107654;1263;63840;-72
2023/08/16 07:53:06;;;;;;;9.30;5.60;;;;;;;30.47;48.72;101270.14;107610;1262;63731;-71
2023/08/16 07:55:34;;;;;;;8.60;5.80;;;;;;;30.52;48.35;101268.39;107726;1261;60402;-71
2023/08/16 07:58:02;;;;;;;7.60;6.30;;;;;;;30.58;48.10;101266.64;107612;1257;60321;-71
2023/08/16 08:00:30;;;;;;;7.20;6.10;;;;;;;30.63;47.90;101265.36;107610;1263;65159;-71
2023/08/16 08:02:57;;;;;;;6.50;5.70;;;;;;;30.71;48.42;101263.80;107708;1262;74960;-71
2023/08/16 08:05:29;;;;;;;7.60;6.10;;;;;;;30.79;47.89;101262.39;107764;1260;63921;-71
2023/08/16 08:07:56;;;;;;;7.20;5.80;;;;;;;30.86;47.45;101261.92;107789;1257;59241;-71
2023/08/16 08:10:24;;;;;;;7.20;6.40;;;;;;;30.97;47.85;101262.44;107666;1260;60191;-70
2023/08/16 08:12:52;;;;;;;7.10;5.90;;;;;;;31.04;47.25;101261.86;107754;1257;63930;-70
2023/08/16 08:15:20;;;;;;;6.50;5.80;;;;;;;31.06;47.29;101262.44;107729;1258;66174;-70
2023/08/16 08:17:47;;;;;;;6.90;5.90;;;;;;;31.10;46.91;101261.44;107868;1257;63851;-70
2023/08/16 08:20:15;;;;;;;6.60;5.60;;;;;;;31.13;46.38;101254.06;107646;1257;60422;-71
2023/08/16 08:22:44;;;;;;;7.30;6.00;;;;;;;31.16;46.18;101252.52;107737;1257;60290;-69
2023/08/16 08:25:11;;;;;;;6.60;5.90;;;;;;;31.20;45.99;101250.35;107675;1261;63973;-70
2023/08/16 08:27:39;;;;;;;6.00;5.40;;;;;;;31.27;45.74;101253.63;107794;1257;62556;-71
2023/08/16 08:30:08;;;;;;;6.80;5.50;;;;;;;31.35;45.63;101253.48;107647;1257;65872;-71
2023/08/16 08:32:36;;;;;;;8.30;5.70;;;;;;;31.36;45.37;101251.61;107806;1257;59842;-70
2023/08/16 08:35:04;;;;;;;6.20;5.20;;;;;;;31.39;45.50;101249.73;107709;1257;60355;-70
2023/08/16 08:37:32;;;;;;;6.80;5.70;;;;;;;31.51;45.48;101249.66;107715;1257;65053;-70
2023/08/16 08:40:00;;;;;;;5.80;5.20;;;;;;;31.62;44.86;101251.31;107821;1257;62690;-70
2023/08/16 08:42:28;;;;;;;6.80;5.40;;;;;;;31.68;43.63;101251.05;107732;1257;63755;-69
2023/08/16 08:44:58;;;;;;;5.50;5.00;;;;;;;31.72;43.33;101249.88;107631;1257;60242;-68
2023/08/16 08:47:26;;;;;;;5.70;5.00;;;;;;;31.75;42.80;101248.88;107786;1258;60411;-69
2023/08/16 08:49:53;;;;;;;5.70;5.20;;;;;;;31.73;42.40;101245.55;107566;1257;65083;-70
2023/08/16 08:52:21;;;;;;;5.60;4.80;;;;;;;31.73;42.59;101243.51;107551;1257;63762;-69
2023/08/16 08:54:49;;;;;;;5.80;5.20;;;;;;;31.77;42.62;101237.28;107728;1258;64047;-69
2023/08/16 08:57:17;;;;;;;5.80;4.70;;;;;;;31.80;42.44;101237.77;107856;1257;60876;-71
2023/08/16 08:59:49;;;;;;;5.60;4.80;;;;;;;31.81;41.96;101241.41;107811;1261;60479;-70
2023/08/16 09:02:17;;;;;;;4.90;4.30;;;;;;;31.81;41.81;101237.94;107556;1257;65080;-70
2023/08/16 09:04:46;;;;;;;6.60;5.00;;;;;;;31.80;41.36;101235.41;107700;1261;62705;-71
2023/08/16 09:07:14;;;;;;;7.70;4.90;;;;;;;31.81;41.63;101234.63;107672;1257;64199;-71
2023/08/16 09:09:44;;;;;;;6.20;4.80;;;;;;;31.85;41.54;101234.64;107604;1256;60565;-71
2023/08/16 09:12:13;;;;;;;5.50;4.10;;;;;;;31.89;41.51;101238.40;107536;1256;60310;-73
2023/08/16 09:14:40;;;;;;;6.80;4.20;;;;;;;31.97;41.67;101239.56;107600;1257;65606;-71
2023/08/16 09:17:08;;;;;;;6.90;4.60;;;;;;;32.00;40.75;101239.34;107636;1257;63977;-71
2023/08/16 09:19:43;;;;;;;8.30;4.20;;;;;;;31.98;40.59;101241.46;107408;1260;63801;-71
2023/08/16 09:22:14;;;;;;;6.60;4.20;;;;;;;32.06;40.71;101239.52;107476;1261;60742;-71
2023/08/16 09:24:45;;;;;;;;;;;;;;;32.13;40.58;101237.82;107848;1255;60338;-71
2023/08/16 09:27:12;;;;;;;5.10;3.80;;;;;;;32.20;40.30;101241.56;107576;1256;73297;-71
2023/08/16 09:29:40;;;;;;;6.40;4.10;;;;;;;32.25;40.26;101240.08;107538;1257;63832;-70
2023/08/16 09:32:08;;;;;;;4.90;3.90;;;;;;;32.33;40.59;101237.80;107517;1261;62817;-71
2023/08/16 09:34:43;;;;;;;5.80;4.20;;;;;;;32.42;40.10;101233.04;107490;1260;59362;-71
2023/08/16 09:37:15;;;;;;;5.50;4.00;;;;;;;32.45;39.69;101231.25;107416;1258;355691;-70
2023/08/16 09:39:43;;;;;;;5.70;3.80;;;;;;;32.46;39.20;101229.36;107613;1257;63698;-70
2023/08/16 09:42:10;;;;;;;6.70;4.20;;;;;;;32.49;38.96;101228.10;107808;1260;63649;-71
2023/08/16 09:44:42;;;;;;;5.10;3.70;;;;;;;32.57;39.36;101225.91;107515;1258;73599;-69
2023/08/16 09:47:13;;;;;;;4.20;3.80;;;;;;;32.66;38.96;101225.05;107763;1256;60415;-70
2023/08/16 09:49:46;;;;;;;5.20;3.90;;;;;;;32.69;38.21;101226.01;107690;1256;59360;-70
2023/08/16 09:52:14;;;;;;;5.50;3.90;;;;;;;32.69;37.99;101222.75;107541;1255;65596;-70
2023/08/16 09:54:41;;;;;;;4.20;3.70;;;;;;;32.72;38.47;101218.41;107685;1260;64067;-70
2023/08/16 09:57:09;;;;;;;4.10;3.60;;;;;;;32.80;38.95;101217.16;107567;1257;73598;-70
2023/08/16 09:59:40;;;;;;;5.80;4.00;;;;;;;32.85;38.34;101217.17;107656;1260;59317;-70
2023/08/16 10:02:11;;;;;;;5.30;3.90;;;;;;;32.86;37.89;101218.28;107584;1257;60402;-72
2023/08/16 10:04:41;;;;;;;5.00;4.10;;;;;;;32.90;38.10;101214.02;107709;1257;65251;-73
2023/08/16 10:07:11;;;;;;;4.90;3.50;;;;;;;33.01;38.05;101213.65;107499;1260;62939;-73
2023/08/16 10:09:41;;;;;;;5.40;3.90;;;;;;;33.03;37.36;101214.67;107547;1257;62440;-70
2023/08/16 10:12:10;;;;;;;6.00;4.00;;;;;;;33.00;37.77;101211.42;109044;1255;58110;-71
2023/08/16 10:14:38;;;;;;;5.70;3.50;;;;;;;33.04;37.73;101211.59;108800;1257;59251;-71
2023/08/16 10:17:09;;;;;;;4.60;3.90;;;;;;;33.08;37.37;101212.00;107635;1257;63706;-70
2023/08/16 10:19:37;;;;;;;6.10;4.10;;;;;;;33.11;36.76;101209.77;107327;1257;63813;-69
2023/08/16 10:22:23;;;;;;;6.20;3.70;;;;;;;33.05;36.98;101209.54;107522;1258;64275;-69
2023/08/16 10:24:54;;;;;;;6.40;3.90;;;;;;;33.09;36.73;101209.94;107820;1260;59823;-70
2023/08/16 10:27:22;;;;;;;5.50;4.20;;;;;;;33.13;37.17;101207.02;107718;1257;59753;-69
2023/08/16 10:29:52;;;;;;;5.60;4.00;;;;;;;33.09;37.42;101210.25;107476;1257;65030;-72
2023/08/16 10:32:24;;;;;;;4.80;4.00;;;;;;;33.01;37.91;101209.70;107449;1257;62681;-73
2023/08/16 10:34:55;;;;;;;5.10;3.90;;;;;;;32.91;37.55;101204.14;107638;1257;62618;-71
2023/08/16 10:37:22;;;;;;;4.80;3.50;;;;;;;32.88;38.17;101201.68;107705;1257;60477;-72
2023/08/16 10:39:52;;;;;;;5.10;4.00;;;;;;;32.95;37.92;101202.09;107647;1257;60321;-70
2023/08/16 10:42:26;;;;;;;5.80;4.00;;;;;;;32.98;37.06;101204.95;108927;1257;65511;-70
2023/08/16 10:44:54;;;;;;;5.30;3.60;;;;;;;33.03;37.08;101204.33;107781;1256;63982;-72
2023/08/16 10:47:29;;;;;;;5.30;3.90;;;;;;;33.07;36.73;101199.50;107736;1257;65801;-71
2023/08/16 10:49:59;;;;;;;5.40;3.60;;;;;;;33.00;36.79;101198.95;107733;1256;59215;-73
2023/08/16 10:52:28;;;;;;;4.50;3.40;;;;;;;33.00;37.47;101188.20;107744;1256;60443;-70
2023/08/16 10:54:55;;;;;;;5.10;4.30;;;;;;;33.04;37.56;101183.38;107745;1256;63916;-71
2023/08/16 10:57:25;;;;;;;5.80;4.00;;;;;;;33.07;37.49;101185.75;107525;1257;65744;-69
2023/08/16 11:00:07;;;;;;;6.10;4.00;;;;;;;33.10;37.85;101187.48;107662;1258;65648;-72
2023/08/16 11:02:35;;;;;;;4.50;3.40;;;;;;;33.16;37.54;101182.89;108844;1258;58078;-71
2023/08/16 11:05:04;;;;;;;5.40;3.90;;;;;;;33.22;37.61;101174.25;107583;1254;61354;-71
2023/08/16 11:07:32;;;;;;;5.20;3.90;;;;;;;33.22;37.06;101175.29;107874;1257;67671;-73
2023/08/16 11:10:00;;;;;;;4.60;3.80;;;;;;;33.21;36.98;101172.60;107676;1256;63797;-71
2023/08/16 11:12:31;;;;;;;5.60;3.70;;;;;;;33.24;37.53;101165.24;107744;1257;64341;-68
2023/08/16 11:14:59;;;;;;;5.60;3.30;;;;;;;33.32;37.15;101163.73;107718;1257;60305;-70